Zprávy METAR z letišť v České republice

LKPR - Praha Ruzyně, Česká republika
Vzdálenost od této stanice: ZJZ 98km
Aktualizováno: 22.01.2018 09:00
 
Teplota vzduchu: -3°C
Chlad větru: -7°C
Vítr: JV 13 km/h
Rosný bod: -5°C
Vlhkost vzduchu: 86%
Tlak vzduchu: 1012 hPa
Stav počasí: Jasno
Oblačnost: jasná obloha
Viditelnost: více než 10 km
2018/01/22 08:00 LKPR 220800Z 14007KT CAVOK M03/M05 Q1012 R24/29//95 R30/350194 NOSIG
LKKB - Praha Kbely, Česká republika
Vzdálenost od této stanice: ZJZ 81km
Aktualizováno: 22.01.2018 09:00
 
Teplota vzduchu: -2°C
Chlad větru: -6°C
Vítr: JV 9 km/h
Rosný bod: -6°C
Vlhkost vzduchu: 74%
Tlak vzduchu: 1014 hPa
Stav počasí: Jasno
Oblačnost: jasná obloha
Viditelnost: více než 10 km
2018/01/22 08:00 LKKB 220800Z 13005KT CAVOK M02/M06 Q1014 NOSIG
 
LKVO - Vodochody, Česká republika
Vzdálenost od této stanice: ZJZ 84km
Aktualizováno: 22.01.2018 08:00
 
Teplota vzduchu: -2°C
Chlad větru: -6°C
Vítr: VJV 11 km/h
Rosný bod: -4°C
Vlhkost vzduchu: 86%
Tlak vzduchu: 1014 hPa
Stav počasí: Jasno
Oblačnost: jasná obloha
Viditelnost: více než 10 km
2018/01/22 07:00 LKVO 220700Z 12006KT CAVOK M02/M04 Q1014
LKPD - Pardubice, Česká republika
Vzdálenost od této stanice: JJV 56km
Aktualizováno: 22.01.2018 09:00
 
Teplota vzduchu: -3°C
Vítr: V 6 km/h
Rosný bod: -5°C
Vlhkost vzduchu: 86%
Tlak vzduchu: 1015 hPa
Stav počasí: Jasno
Oblačnost: jasná obloha
Viditelnost: více než 10 km
2018/01/22 08:00 LKPD 220800Z 10003KT 070V140 CAVOK M03/M05 Q1015 NOSIG RMK BLU BLU
 
LKCV - Čáslav, Česká republika
Vzdálenost od této stanice: J 63km
Aktualizováno: 22.01.2018 09:00
 
Teplota vzduchu: -3°C
Chlad větru: -6°C
Vítr: VJV 7 km/h
Rosný bod: -5°C
Vlhkost vzduchu: 86%
Tlak vzduchu: 1015 hPa
Stav počasí: Jasno
Oblačnost: jasná obloha
Viditelnost: více než 10 km
2018/01/22 08:00 LKCV 220800Z 12004KT CAVOK M03/M05 Q1015 NOSIG RMK BLU BLU
LKLB - Liberec, Česká republika
Vzdálenost od této stanice: SZ 45km
Aktualizováno: 02.01.2013 07:02
Není aktuální
 
Teplota vzduchu: -1°C
Vítr: JJV 6 km/h
Rosný bod: -2°C
Vlhkost vzduchu: 93%
Tlak vzduchu: 1016 hPa
Oblačnost: skoro zataženo
Viditelnost: 10 km
Detaily oblačnosti: skoro jasno 488 m
skoro zataženo 1311 m
2013/01/02 06:02 LKLB 020602Z 16003KT 9999 FEW016 BKN043 M01/M02 Q1016
 
LKKU - Kunovice, Česká republika
Vzdálenost od této stanice: JV 213km
Aktualizováno: 22.01.2018 08:00
 
Teplota vzduchu: -5°C
Chlad větru: -8°C
Vítr: J 7 km/h
Rosný bod: -6°C
Vlhkost vzduchu: 93%
Tlak vzduchu: 1016 hPa
Stav počasí: Jasno
Oblačnost: jasná obloha
Viditelnost: více než 10 km
2018/01/22 07:00 LKKU 220700Z 19004KT CAVOK M05/M06 Q1016
LKTB - Brno Tuřany, Česká republika
Vzdálenost od této stanice: JJV 174km
Aktualizováno: 22.01.2018 09:00
 
Teplota vzduchu: -5°C
Vítr: ZSZ 4 km/h
Rosný bod: -6°C
Vlhkost vzduchu: 93%
Tlak vzduchu: 1016 hPa
Stav počasí: Jasno
Oblačnost: jasná obloha
Viditelnost: více než 10 km
2018/01/22 08:00 LKTB 220800Z 30002KT CAVOK M05/M06 Q1016 NOSIG
 
LKKV - Karlovy Vary, Česká republika
Vzdálenost od této stanice: Z 187km
Aktualizováno: 22.01.2018 09:00
 
Teplota vzduchu: -4°C
Chlad větru: -8°C
Vítr: JV 11 km/h
Rosný bod: -5°C
Vlhkost vzduchu: 93%
Tlak vzduchu: 1010 hPa
Oblačnost: skoro jasno
Viditelnost: 10 km
Detaily oblačnosti: skoro jasno 213 m
2018/01/22 08:00 LKKV 220800Z 13006KT 100V160 9999 FEW007 M04/M05 Q1010 R29/790592
LKMT - Ostrava Mošnov, Česká republika
Vzdálenost od této stanice: VJV 208km
Aktualizováno: 22.01.2018 09:00
 
Teplota vzduchu: -3°C
Vítr: VSV 6 km/h
Rosný bod: -4°C
Vlhkost vzduchu: 93%
Tlak vzduchu: 1016 hPa
Stav počasí: mrznoucí mlha
Oblačnost: oblačno
Viditelnost: 1 km
Detaily oblačnosti: oblačno 396 m
2018/01/22 08:00 LKMT 220800Z 07003KT 0900 R22/1600U R04/0225N FZFG SCT013 M03/M04 Q1016 R04/590193 TEMPO 1500 BR
 
LKNA - Náměšť n. Osl., Česká republika
Vzdálenost od této stanice: JJV 154km
Aktualizováno: 22.01.2018 09:00
 
Teplota vzduchu: -5°C
Vítr: proměnlivý 2 km/h
Rosný bod: -6°C
Vlhkost vzduchu: 93%
Tlak vzduchu: 1014 hPa
Oblačnost: oblačno
Viditelnost: 6 km
2018/01/22 08:00 LKNA 220800Z VRB01KT 6000 NSC M05/M06 Q1014 NOSIG RMK WHT
LKLN - Plzeň Líně, Česká republika
Vzdálenost od této stanice: ZJZ 184km
Aktualizováno: 22.01.2018 09:00
 
Teplota vzduchu: -4°C
Vítr: proměnlivý 4 km/h
Rosný bod: -5°C
Vlhkost vzduchu: 93%
Tlak vzduchu: 1012 hPa
Stav počasí: opar
Oblačnost: zataženo
Viditelnost: 5 km
Detaily oblačnosti: zataženo 2073 m
2018/01/22 08:00 LKLN 220800Z AUTO VRB02KT 5000 BR OVC068 M04/M05 Q1012
 
EDDC - Dresden/Klotzsche, Německo
Vzdálenost od této stanice: NNW 107km
Aktualizováno: 22.01.2018 08:50
 
Teplota vzduchu: -1°C
Chlad větru: -7°C
Vítr: J 22 km/h
Rosný bod: -4°C
Vlhkost vzduchu: 80%
Tlak vzduchu: 1011 hPa
Stav počasí: Jasno
Oblačnost: jasná obloha
Viditelnost: více než 10 km
2018/01/22 07:50 EDDC 220750Z 17012KT CAVOK M01/M04 Q1011 NOSIG
EDAC - Altenburg-Nobitz, Německo
Vzdálenost od této stanice: WNW 159km
Aktualizováno: 22.01.2018 08:50
 
Teplota vzduchu: 0°C
Chlad větru: -3°C
Vítr: JJV 7 km/h
Rosný bod: -3°C
Vlhkost vzduchu: 80%
Tlak vzduchu: 1010 hPa
Stav počasí: Jasno
Oblačnost: jasná obloha
Viditelnost: více než 10 km
2018/01/22 07:50 EDAC 220750Z 15004KT 130V190 CAVOK 00/M03 Q1010
 
EDQM - Hof, Německo
Vzdálenost od této stanice: W 187km
Aktualizováno: 22.01.2018 08:50
 
Teplota vzduchu: -2°C
Chlad větru: -7°C
Vítr: JJV 17 km/h
Rosný bod: -4°C
Vlhkost vzduchu: 86%
Tlak vzduchu: 1009 hPa
Oblačnost: zataženo
Viditelnost: 10 km
Detaily oblačnosti: skoro zataženo 396 m
zataženo 518 m
2018/01/22 07:50 EDQM 220750Z 16009KT 130V190 9999 BKN013 OVC017 M02/M04 Q1009
ETSH - Holzdorf, Německo
Vzdálenost od této stanice: NNW 188km
Aktualizováno: 22.01.2018 08:20
 
Teplota vzduchu: 0°C
Chlad větru: -4°C
Vítr: JV 17 km/h
Rosný bod: -3°C
Vlhkost vzduchu: 80%
Tlak vzduchu: 1012 hPa
Oblačnost: skoro zataženo
Viditelnost: 10 km
Detaily oblačnosti: skoro zataženo 2743 m
skoro zataženo 3353 m
2018/01/22 07:20 ETSH 220720Z 14009KT 9999 BKN090 BKN110 M00/M03 Q1012 BLU BLU
 
EPWR - Wroclaw Strachowice, Polsko
Vzdálenost od této stanice: ENE 191km
Aktualizováno: 22.01.2018 09:00
 
Teplota vzduchu: -2°C
Chlad větru: -7°C
Vítr: JV 15 km/h
Rosný bod: -4°C
Vlhkost vzduchu: 86%
Tlak vzduchu: 1016 hPa
Stav počasí: Jasno
Oblačnost: jasná obloha
Viditelnost: více než 10 km
2018/01/22 08:00 EPWR 220800Z 14008KT CAVOK M02/M04 Q1016
ETIC - Grafenwöhr, Německo
Vzdálenost od této stanice: WSW 194km
Aktualizováno: 22.01.2018 08:56
 
Teplota vzduchu: -1°C
Chlad větru: -4°C
Vítr: JV 9 km/h
Rosný bod: -2°C
Vlhkost vzduchu: 93%
Tlak vzduchu: 1010.5 hPa
Oblačnost: zataženo
Viditelnost: 10 km
Detaily oblačnosti: zataženo 366 m
2018/01/22 07:56 ETIC 220756Z AUTO 13005KT 9999 OVC012 M01/M02 A2984 RMK AO2 SNE38 SLP133 P0000 T10131020 $
 
EDDP - Liepzig/Schkeuditz, Německo
Vzdálenost od této stanice: NW 202km
Aktualizováno: 22.01.2018 08:50
 
Teplota vzduchu: 0°C
Chlad větru: -4°C
Vítr: JJV 17 km/h
Rosný bod: -2°C
Vlhkost vzduchu: 87%
Tlak vzduchu: 1010 hPa
Stav počasí: mírnější sníh
Oblačnost: oblačno
Viditelnost: 10 km
2018/01/22 07:50 EDDP 220750Z 16009KT 9999 -SN NSC 00/M02 Q1010 TEMPO 4500 -SN
EPZG - Zielena Gora, Polsko
Vzdálenost od této stanice: NNE 224km
Aktualizováno: 22.01.2018 09:00
 
Teplota vzduchu: -3°C
Chlad větru: -6°C
Vítr: V 7 km/h
Rosný bod: -3°C
Vlhkost vzduchu: 100%
Tlak vzduchu: 1016 hPa
Stav počasí: opar
Oblačnost: oblačno
Viditelnost: 4 km
2018/01/22 08:00 EPZG 220800Z 10004KT 070V130 3500 BR NSC M03/M03 Q1016
 
ETIH - Hohenfels U.S. Army Garrison Bavaria, Německo
Vzdálenost od této stanice: WSW 226km
Aktualizováno: 22.01.2018 09:02
 
Teplota vzduchu: -1°C
Chlad větru: -5°C
Vítr: JV 11 km/h
Rosný bod: -1°C
Vlhkost vzduchu: 100%
Tlak vzduchu: 1010.8 hPa
Stav počasí: Mírnější sníh, Opar
Oblačnost: zataženo
Viditelnost: 3 km
Detaily oblačnosti: oblačno 274 m
zataženo 457 m
2018/01/22 08:02 ETIH 220802Z AUTO 14006KT 2800 -SN BR SCT009 OVC015 M01/M01 A2985 RMK AO2 VIS 2800V3600 CIG 009V015 CIG 014 RWY09 SLP136 $
LOWL - Linz (CIV/MIL), Rakousko
Vzdálenost od této stanice: S 232km
Aktualizováno: 22.01.2018 08:50
 
Teplota vzduchu: -1°C
Chlad větru: -5°C
Vítr: V 11 km/h
Rosný bod: -3°C
Vlhkost vzduchu: 86%
Tlak vzduchu: 1013 hPa
Oblačnost: skoro zataženo
Viditelnost: 10 km
Detaily oblačnosti: skoro jasno 183 m
skoro zataženo 244 m
skoro zataženo 2743 m
2018/01/22 07:50 LOWL 220750Z 08006KT 9999 FEW006 BKN008 BKN090 M01/M03 Q1013 TEMPO SCT008 BKN012
 
EDDB - Berlin/Schönefeld, Německo
Vzdálenost od této stanice: NNW 242km
Aktualizováno: 22.01.2018 08:50
 
Teplota vzduchu: 0°C
Chlad větru: -4°C
Vítr: JV 15 km/h
Rosný bod: -2°C
Vlhkost vzduchu: 87%
Tlak vzduchu: 1013 hPa
Oblačnost: skoro zataženo
Viditelnost: 10 km
Detaily oblačnosti: skoro jasno 274 m
skoro zataženo 3353 m
2018/01/22 07:50 EDDB 220750Z 14008KT 110V170 9999 FEW009 BKN110 M00/M02 Q1013 NOSIG

Metar display script od Saratoga-Weather.org
upravil a přeložil Miloš Jiřík